Time;durP1;ratioP1;P1;durP2;ratioP2;P2;SDS_P1;SDS_P2;PMS_P1;PMS_P2;Temp;Humidity;BMP_temperature;BMP_pressure;BME280_temperature;BME280_humidity;BME280_pressure;Samples;Min_cycle;Max_cycle;Signal;HPM_P1;HPM_P2
2021/09/15 00:02:21;;;;;;;0.00;0.00;;;;;;;;;;10474548;28;20049;-66
2021/09/15 00:07:23;;;;;;;0.00;0.00;;;;;;;;;;10478925;28;20036;-66
2021/09/15 00:12:26;;;;;;;0.00;0.00;;;;;;;;;;10472679;28;20580;-65
2021/09/15 00:17:30;;;;;;;0.00;0.00;;;;;;;;;;10478404;28;20048;-65
2021/09/15 00:22:33;;;;;;;0.00;0.00;;;;;;;;;;10472696;28;20107;-66
2021/09/15 00:27:37;;;;;;;0.00;0.00;;;;;;;;;;10474187;28;20044;-65
2021/09/15 00:32:41;;;;;;;0.00;0.00;;;;;;;;;;10472930;28;20448;-65
2021/09/15 00:37:44;;;;;;;0.00;0.00;;;;;;;;;;10475680;28;20225;-66
2021/09/15 00:42:46;;;;;;;0.00;0.00;;;;;;;;;;10472928;28;20549;-65
2021/09/15 00:47:51;;;;;;;0.00;0.00;;;;;;;;;;10475315;28;20090;-65
2021/09/15 00:52:55;;;;;;;0.00;0.00;;;;;;;;;;10471832;28;20048;-65
2021/09/15 00:57:58;;;;;;;0.00;0.00;;;;;;;;;;10471102;28;20534;-65
2021/09/15 01:03:04;;;;;;;0.00;0.00;;;;;;;;;;10473603;28;20047;-65
2021/09/15 01:08:08;;;;;;;0.00;0.00;;;;;;;;;;10471094;28;20557;-65
2021/09/15 01:13:12;;;;;;;0.00;0.00;;;;;;;;;;10468234;28;20493;-65
2021/09/15 01:18:16;;;;;;;0.00;0.00;;;;;;;;;;10473376;28;20048;-65
2021/09/15 01:23:38;;;;;;;0.00;0.00;;;;;;;;;;10471295;28;20494;-65
2021/09/15 01:29:04;;;;;;;0.00;0.00;;;;;;;;;;10464999;28;20060;-65
2021/09/15 01:34:07;;;;;;;0.00;0.00;;;;;;;;;;10495547;28;20164;-65
2021/09/15 01:39:13;;;;;;;0.00;0.00;;;;;;;;;;10471224;28;20078;-65
2021/09/15 01:44:16;;;;;;;0.00;0.00;;;;;;;;;;10467534;28;20067;-65
2021/09/15 01:49:19;;;;;;;0.00;0.00;;;;;;;;;;10478980;28;20051;-65
2021/09/15 01:54:23;;;;;;;0.00;0.00;;;;;;;;;;10474907;28;20052;-65
2021/09/15 01:59:26;;;;;;;0.00;0.00;;;;;;;;;;10474249;28;20056;-65
2021/09/15 02:04:58;;;;;;;0.00;0.00;;;;;;;;;;10460736;28;20170;-65
2021/09/15 02:10:12;;;;;;;0.00;0.00;;;;;;;;;;10470556;28;20049;-65
2021/09/15 02:15:15;;;;;;;0.00;0.00;;;;;;;;;;10469352;28;20044;-65
2021/09/15 02:20:21;;;;;;;0.00;0.00;;;;;;;;;;10472114;28;20098;-65
2021/09/15 02:25:37;;;;;;;0.00;0.00;;;;;;;;;;10477587;28;20391;-65
2021/09/15 02:30:46;;;;;;;0.00;0.00;;;;;;;;;;10481464;28;20052;-65
2021/09/15 02:36:04;;;;;;;0.00;0.00;;;;;;;;;;10475088;28;20106;-65
2021/09/15 02:41:26;;;;;;;0.10;0.00;;;;;;;;;;10477074;28;20051;-65
2021/09/15 02:46:35;;;;;;;0.00;0.00;;;;;;;;;;10473727;28;20071;-65
2021/09/15 02:52:01;;;;;;;0.00;0.00;;;;;;;;;;10477162;28;20485;-65
2021/09/15 02:57:16;;;;;;;0.00;0.00;;;;;;;;;;10475254;28;20045;-65
2021/09/15 03:02:22;;;;;;;0.00;0.00;;;;;;;;;;10475158;28;20055;-65
2021/09/15 03:07:44;;;;;;;0.00;0.00;;;;;;;;;;10477174;28;20049;-65
2021/09/15 03:12:48;;;;;;;0.00;0.00;;;;;;;;;;10472366;28;20071;-65
2021/09/15 03:17:52;;;;;;;0.00;0.00;;;;;;;;;;10474953;28;20412;-65
2021/09/15 03:22:56;;;;;;;0.00;0.00;;;;;;;;;;10471483;28;20044;-64
2021/09/15 03:28:00;;;;;;;0.00;0.00;;;;;;;;;;10498434;28;20051;-64
2021/09/15 03:33:03;;;;;;;0.00;0.00;;;;;;;;;;10486867;28;20101;-64
2021/09/15 03:38:07;;;;;;;0.00;0.00;;;;;;;;;;10472582;28;20433;-64
2021/09/15 03:43:14;;;;;;;0.00;0.00;;;;;;;;;;10472750;28;20057;-64
2021/09/15 03:48:17;;;;;;;0.00;0.00;;;;;;;;;;10472775;28;20394;-64
2021/09/15 03:53:21;;;;;;;0.00;0.00;;;;;;;;;;10469668;28;20102;-64
2021/09/15 03:58:26;;;;;;;0.00;0.00;;;;;;;;;;10470153;28;20048;-64
2021/09/15 04:03:30;;;;;;;0.00;0.00;;;;;;;;;;10472814;28;20190;-64
2021/09/15 04:08:33;;;;;;;0.00;0.00;;;;;;;;;;10471372;28;20452;-64
2021/09/15 04:13:38;;;;;;;0.00;0.00;;;;;;;;;;10471609;28;20434;-64
2021/09/15 04:18:41;;;;;;;0.00;0.00;;;;;;;;;;10468639;28;20055;-64
2021/09/15 04:23:54;;;;;;;0.00;0.00;;;;;;;;;;10469856;28;20048;-65
2021/09/15 04:34:21;;;;;;;;;;;;;;;;;;10468890;28;20175;-64
2021/09/15 04:39:29;;;;;;;0.00;0.00;;;;;;;;;;10469165;28;20325;-64
2021/09/15 04:44:34;;;;;;;0.00;0.00;;;;;;;;;;10467007;28;20054;-64
2021/09/15 04:49:37;;;;;;;0.00;0.00;;;;;;;;;;10470241;28;20055;-64
2021/09/15 04:54:41;;;;;;;0.00;0.00;;;;;;;;;;10469717;28;20048;-65
2021/09/15 04:59:45;;;;;;;0.00;0.00;;;;;;;;;;10478806;28;20045;-65
2021/09/15 05:04:48;;;;;;;0.00;0.00;;;;;;;;;;10467828;28;20396;-65
2021/09/15 05:10:02;;;;;;;0.00;0.00;;;;;;;;;;10470160;28;20556;-65
2021/09/15 05:15:08;;;;;;;0.00;0.00;;;;;;;;;;10468005;28;20401;-65
2021/09/15 05:20:11;;;;;;;0.00;0.00;;;;;;;;;;10499158;28;20505;-64
2021/09/15 05:25:14;;;;;;;0.00;0.00;;;;;;;;;;10464377;28;20048;-65
2021/09/15 05:30:19;;;;;;;0.00;0.00;;;;;;;;;;10467725;28;20056;-65
2021/09/15 05:35:30;;;;;;;0.00;0.00;;;;;;;;;;10468171;28;20059;-65
2021/09/15 05:40:37;;;;;;;0.00;0.00;;;;;;;;;;10473693;28;20067;-65
2021/09/15 05:45:42;;;;;;;0.00;0.00;;;;;;;;;;10467557;28;20080;-65
2021/09/15 05:50:45;;;;;;;0.00;0.00;;;;;;;;;;10468797;28;20048;-65
2021/09/15 05:55:48;;;;;;;0.00;0.00;;;;;;;;;;10478034;28;20044;-65
2021/09/15 06:00:53;;;;;;;0.00;0.00;;;;;;;;;;10477984;28;20040;-65
2021/09/15 06:05:56;;;;;;;0.00;0.00;;;;;;;;;;10472557;28;20121;-65
2021/09/15 06:10:59;;;;;;;0.00;0.00;;;;;;;;;;10477391;28;20045;-65
2021/09/15 06:16:06;;;;;;;0.00;0.00;;;;;;;;;;10479174;28;20052;-65
2021/09/15 06:21:12;;;;;;;0.00;0.00;;;;;;;;;;10475116;28;20409;-65
2021/09/15 06:26:51;;;;;;;0.00;0.00;;;;;;;;;;10474626;28;20390;-64
2021/09/15 06:31:56;;;;;;;0.00;0.00;;;;;;;;;;10475008;28;20087;-65
2021/09/15 06:36:59;;;;;;;0.00;0.00;;;;;;;;;;10475894;28;20630;-64
2021/09/15 06:42:01;;;;;;;0.00;0.00;;;;;;;;;;10475352;28;20483;-64
2021/09/15 06:47:07;;;;;;;0.00;0.00;;;;;;;;;;10472614;28;20048;-64
2021/09/15 06:52:10;;;;;;;0.00;0.00;;;;;;;;;;10475717;28;20036;-64
2021/09/15 06:57:13;;;;;;;0.10;0.00;;;;;;;;;;10475334;28;20497;-64
2021/09/15 07:02:18;;;;;;;0.00;0.00;;;;;;;;;;10475101;28;20048;-64
2021/09/15 07:07:20;;;;;;;0.00;0.00;;;;;;;;;;10471687;28;20044;-64
2021/09/15 07:12:23;;;;;;;0.00;0.00;;;;;;;;;;10475242;28;20080;-64
2021/09/15 07:17:27;;;;;;;0.00;0.00;;;;;;;;;;10486899;28;20573;-64
2021/09/15 07:22:31;;;;;;;0.00;0.00;;;;;;;;;;10477564;28;20109;-64
2021/09/15 07:27:34;;;;;;;0.00;0.00;;;;;;;;;;10473192;28;20044;-64
2021/09/15 07:32:39;;;;;;;0.00;0.00;;;;;;;;;;10475230;28;20128;-64
2021/09/15 07:37:42;;;;;;;0.00;0.00;;;;;;;;;;10471741;28;20051;-64
2021/09/15 07:42:45;;;;;;;0.00;0.00;;;;;;;;;;10475015;28;20055;-63
2021/09/15 07:47:49;;;;;;;0.00;0.00;;;;;;;;;;10476760;28;20055;-64
2021/09/15 07:52:52;;;;;;;0.00;0.00;;;;;;;;;;10475327;28;20044;-63
2021/09/15 07:57:56;;;;;;;0.00;0.00;;;;;;;;;;10473586;28;20048;-64
2021/09/15 08:03:01;;;;;;;0.00;0.00;;;;;;;;;;10474716;28;20037;-63
2021/09/15 08:08:04;;;;;;;0.00;0.00;;;;;;;;;;10472850;28;20060;-63
2021/09/15 08:13:06;;;;;;;0.00;0.00;;;;;;;;;;10470091;28;20391;-64
2021/09/15 08:18:11;;;;;;;0.00;0.00;;;;;;;;;;10473533;28;20135;-64
2021/09/15 08:23:33;;;;;;;0.00;0.00;;;;;;;;;;10471383;28;20040;-64
2021/09/15 08:28:37;;;;;;;0.00;0.00;;;;;;;;;;10472046;28;20059;-64
2021/09/15 08:33:41;;;;;;;0.00;0.00;;;;;;;;;;10473332;28;20048;-64
2021/09/15 08:38:44;;;;;;;0.00;0.00;;;;;;;;;;10470776;28;20054;-63
2021/09/15 08:43:46;;;;;;;0.00;0.00;;;;;;;;;;10467506;28;20056;-63
2021/09/15 08:48:52;;;;;;;0.00;0.00;;;;;;;;;;10474310;28;20505;-65
2021/09/15 08:53:55;;;;;;;0.00;0.00;;;;;;;;;;10471353;28;20298;-64
2021/09/15 08:59:00;;;;;;;0.00;0.00;;;;;;;;;;10475761;28;20051;-64
2021/09/15 09:04:04;;;;;;;0.00;0.00;;;;;;;;;;10496624;28;20040;-64
2021/09/15 09:09:08;;;;;;;0.00;0.00;;;;;;;;;;10501544;28;20059;-64
2021/09/15 09:14:13;;;;;;;0.00;0.00;;;;;;;;;;10468023;28;20814;-64
2021/09/15 09:19:17;;;;;;;0.00;0.00;;;;;;;;;;10476246;28;20095;-64
2021/09/15 09:24:21;;;;;;;0.00;0.00;;;;;;;;;;10469804;28;20049;-64
2021/09/15 09:29:26;;;;;;;0.00;0.00;;;;;;;;;;10477311;28;20049;-64
2021/09/15 09:34:32;;;;;;;0.00;0.00;;;;;;;;;;10478981;28;20085;-64
2021/09/15 09:39:36;;;;;;;0.00;0.00;;;;;;;;;;10480291;28;20056;-64
2021/09/15 09:44:39;;;;;;;0.00;0.00;;;;;;;;;;10479298;28;20384;-64
2021/09/15 09:49:56;;;;;;;0.00;0.00;;;;;;;;;;10477286;28;20044;-64
2021/09/15 09:55:01;;;;;;;0.00;0.00;;;;;;;;;;10477869;28;20371;-67
2021/09/15 10:00:05;;;;;;;0.00;0.00;;;;;;;;;;10478681;28;20049;-66
2021/09/15 10:05:14;;;;;;;0.00;0.00;;;;;;;;;;10480756;28;20041;-66
2021/09/15 10:10:20;;;;;;;0.00;0.00;;;;;;;;;;10479816;28;20094;-66
2021/09/15 10:15:23;;;;;;;0.00;0.00;;;;;;;;;;10481306;28;20052;-66
2021/09/15 10:20:26;;;;;;;0.00;0.00;;;;;;;;;;10477152;28;20048;-65
2021/09/15 10:25:38;;;;;;;0.00;0.00;;;;;;;;;;10479807;28;20054;-65
2021/09/15 10:30:47;;;;;;;0.00;0.00;;;;;;;;;;10477122;28;20064;-65
2021/09/15 10:35:50;;;;;;;0.00;0.00;;;;;;;;;;10479674;28;20051;-65
2021/09/15 10:40:54;;;;;;;0.00;0.00;;;;;;;;;;10476493;28;20056;-65
2021/09/15 10:46:12;;;;;;;0.00;0.00;;;;;;;;;;10479808;28;20045;-65
2021/09/15 10:51:19;;;;;;;0.00;0.00;;;;;;;;;;10477582;28;20052;-65
2021/09/15 10:56:38;;;;;;;0.00;0.00;;;;;;;;;;10488733;28;20048;-65
2021/09/15 11:01:41;;;;;;;0.00;0.00;;;;;;;;;;10480844;28;20047;-66
2021/09/15 11:06:44;;;;;;;0.00;0.00;;;;;;;;;;10484025;28;20052;-66
2021/09/15 11:11:52;;;;;;;0.00;0.00;;;;;;;;;;10478703;28;20418;-66
2021/09/15 11:17:03;;;;;;;0.00;0.00;;;;;;;;;;10471731;28;20055;-65
2021/09/15 11:22:09;;;;;;;0.00;0.00;;;;;;;;;;10478185;28;20057;-66
2021/09/15 11:27:13;;;;;;;0.00;0.00;;;;;;;;;;10473365;28;20534;-66
2021/09/15 11:32:17;;;;;;;0.00;0.00;;;;;;;;;;10478157;28;20565;-66
2021/09/15 11:37:21;;;;;;;0.00;0.00;;;;;;;;;;10474466;28;20081;-66
2021/09/15 11:42:26;;;;;;;0.00;0.00;;;;;;;;;;10477093;28;20052;-66
2021/09/15 11:47:28;;;;;;;0.00;0.00;;;;;;;;;;10474126;28;20052;-66
2021/09/15 11:52:40;;;;;;;0.00;0.00;;;;;;;;;;10476395;28;20047;-66
2021/09/15 11:57:46;;;;;;;0.00;0.00;;;;;;;;;;10472697;28;20051;-66
2021/09/15 12:02:50;;;;;;;0.00;0.00;;;;;;;;;;10473011;28;20045;-66
2021/09/15 12:07:52;;;;;;;0.00;0.00;;;;;;;;;;10474421;28;20049;-66
2021/09/15 12:12:58;;;;;;;0.00;0.00;;;;;;;;;;10474135;28;20049;-66
2021/09/15 12:18:01;;;;;;;0.00;0.00;;;;;;;;;;10474120;28;20044;-66
2021/09/15 12:23:04;;;;;;;0.00;0.00;;;;;;;;;;10474301;28;20079;-66
2021/09/15 12:28:08;;;;;;;0.00;0.00;;;;;;;;;;10473496;28;20049;-66
2021/09/15 12:33:21;;;;;;;0.00;0.00;;;;;;;;;;10471003;28;20060;-66
2021/09/15 12:38:45;;;;;;;0.00;0.00;;;;;;;;;;10475058;28;20095;-66
2021/09/15 12:43:49;;;;;;;0.00;0.00;;;;;;;;;;10469483;28;20051;-66
2021/09/15 12:48:52;;;;;;;0.00;0.00;;;;;;;;;;10474647;28;20047;-66
2021/09/15 12:53:55;;;;;;;0.00;0.00;;;;;;;;;;10471434;28;20055;-66
2021/09/15 12:59:01;;;;;;;0.00;0.00;;;;;;;;;;10466331;28;20417;-67
2021/09/15 13:04:10;;;;;;;0.00;0.00;;;;;;;;;;10483565;28;20047;-66
2021/09/15 13:09:13;;;;;;;0.00;0.00;;;;;;;;;;10484467;28;20550;-66
2021/09/15 13:14:17;;;;;;;0.00;0.00;;;;;;;;;;10469472;28;20490;-66
2021/09/15 13:19:20;;;;;;;0.00;0.00;;;;;;;;;;10473451;28;20045;-66
2021/09/15 13:24:23;;;;;;;0.00;0.00;;;;;;;;;;10466069;28;20126;-66
2021/09/15 13:29:27;;;;;;;0.00;0.00;;;;;;;;;;10469864;28;20044;-66
2021/09/15 13:34:30;;;;;;;0.00;0.00;;;;;;;;;;10469726;28;20545;-66
2021/09/15 13:39:34;;;;;;;0.00;0.00;;;;;;;;;;10470471;28;20079;-66
2021/09/15 13:44:38;;;;;;;0.00;0.00;;;;;;;;;;10472107;28;20044;-66
2021/09/15 13:49:40;;;;;;;0.00;0.00;;;;;;;;;;10470391;28;20048;-66
2021/09/15 13:54:44;;;;;;;0.00;0.00;;;;;;;;;;10470613;28;20470;-66
2021/09/15 13:59:49;;;;;;;0.00;0.00;;;;;;;;;;10471325;28;20048;-66
2021/09/15 14:04:52;;;;;;;0.00;0.00;;;;;;;;;;10467050;28;20047;-66
2021/09/15 14:09:55;;;;;;;0.00;0.00;;;;;;;;;;10470828;28;20057;-66
2021/09/15 14:15:19;;;;;;;0.00;0.00;;;;;;;;;;10472003;28;20410;-66
2021/09/15 14:20:22;;;;;;;0.00;0.00;;;;;;;;;;10476972;28;20508;-66
2021/09/15 14:25:25;;;;;;;0.00;0.00;;;;;;;;;;10476332;28;20032;-67
2021/09/15 14:30:29;;;;;;;0.00;0.00;;;;;;;;;;10473533;28;20709;-66
2021/09/15 14:35:32;;;;;;;0.00;0.00;;;;;;;;;;10473431;28;20049;-66
2021/09/15 14:40:35;;;;;;;0.00;0.00;;;;;;;;;;10473817;28;20056;-64
2021/09/15 14:45:39;;;;;;;0.00;0.00;;;;;;;;;;10474962;28;20047;-67
2021/09/15 14:50:42;;;;;;;0.00;0.00;;;;;;;;;;10478892;28;20048;-68
2021/09/15 14:55:45;;;;;;;0.00;0.00;;;;;;;;;;10475179;28;20045;-67
2021/09/15 15:00:49;;;;;;;0.00;0.00;;;;;;;;;;10502152;28;20067;-67
2021/09/15 15:05:52;;;;;;;0.00;0.00;;;;;;;;;;10480548;28;20052;-67
2021/09/15 15:10:55;;;;;;;0.00;0.00;;;;;;;;;;10474192;28;20075;-67
2021/09/15 15:15:59;;;;;;;0.00;0.00;;;;;;;;;;10472799;28;20037;-66
2021/09/15 15:21:02;;;;;;;0.00;0.00;;;;;;;;;;10475694;28;20078;-67
2021/09/15 15:26:04;;;;;;;0.00;0.00;;;;;;;;;;10471366;28;20098;-66
2021/09/15 15:31:08;;;;;;;0.00;0.00;;;;;;;;;;10470827;28;20044;-67
2021/09/15 15:36:12;;;;;;;0.00;0.00;;;;;;;;;;10474001;28;20378;-66
2021/09/15 15:41:15;;;;;;;0.00;0.00;;;;;;;;;;10467563;28;20469;-66
2021/09/15 15:46:19;;;;;;;0.00;0.00;;;;;;;;;;10474816;28;20043;-66
2021/09/15 15:51:22;;;;;;;0.00;0.00;;;;;;;;;;10471344;28;20056;-65
2021/09/15 15:56:24;;;;;;;0.00;0.00;;;;;;;;;;10472823;28;20060;-66
2021/09/15 16:01:30;;;;;;;0.00;0.00;;;;;;;;;;10473335;28;20044;-67
2021/09/15 16:06:33;;;;;;;0.00;0.00;;;;;;;;;;10474007;28;20049;-65
2021/09/15 16:11:35;;;;;;;0.00;0.00;;;;;;;;;;10473350;28;20471;-67
2021/09/15 16:16:40;;;;;;;0.00;0.00;;;;;;;;;;10469570;28;20464;-66
2021/09/15 16:21:43;;;;;;;0.00;0.00;;;;;;;;;;10470385;28;20143;-66
2021/09/15 16:26:46;;;;;;;0.00;0.00;;;;;;;;;;10472904;28;20040;-65
2021/09/15 16:31:50;;;;;;;0.00;0.00;;;;;;;;;;10469288;28;20044;-70
2021/09/15 16:36:53;;;;;;;0.00;0.00;;;;;;;;;;10466165;28;20505;-68
2021/09/15 16:41:55;;;;;;;0.00;0.00;;;;;;;;;;10470700;28;20056;-68
2021/09/15 16:46:59;;;;;;;0.00;0.00;;;;;;;;;;10470421;28;20038;-65
2021/09/15 16:52:03;;;;;;;0.00;0.00;;;;;;;;;;10476790;28;20048;-65
2021/09/15 16:57:06;;;;;;;0.00;0.00;;;;;;;;;;10503332;28;20485;-75
2021/09/15 17:02:10;;;;;;;0.00;0.00;;;;;;;;;;10474641;28;20051;-68
2021/09/15 17:07:13;;;;;;;0.00;0.00;;;;;;;;;;10473500;28;20043;-70
2021/09/15 17:12:16;;;;;;;0.08;0.00;;;;;;;;;;10475334;28;20048;-66
2021/09/15 17:17:20;;;;;;;0.00;0.00;;;;;;;;;;10469304;28;20058;-64
2021/09/15 17:22:23;;;;;;;0.00;0.00;;;;;;;;;;10475114;28;20071;-65
2021/09/15 17:27:26;;;;;;;0.00;0.00;;;;;;;;;;10471704;28;20040;-66
2021/09/15 17:32:30;;;;;;;0.00;0.00;;;;;;;;;;10471183;28;20403;-67
2021/09/15 17:37:32;;;;;;;0.00;0.00;;;;;;;;;;10471263;28;20045;-65
2021/09/15 17:42:37;;;;;;;0.00;0.00;;;;;;;;;;10469597;28;20057;-66
2021/09/15 17:47:43;;;;;;;0.00;0.00;;;;;;;;;;10475199;28;20045;-67
2021/09/15 17:52:45;;;;;;;0.00;0.00;;;;;;;;;;10477712;28;20045;-67
2021/09/15 17:58:19;;;;;;;0.00;0.00;;;;;;;;;;10480864;28;20142;-67
2021/09/15 18:03:23;;;;;;;0.00;0.00;;;;;;;;;;10479360;28;20049;-64
2021/09/15 18:08:26;;;;;;;0.00;0.00;;;;;;;;;;10478044;28;20048;-67
2021/09/15 18:13:29;;;;;;;0.00;0.00;;;;;;;;;;10480463;28;20386;-68
2021/09/15 18:18:33;;;;;;;0.00;0.00;;;;;;;;;;10477956;28;20036;-66
2021/09/15 18:23:36;;;;;;;0.00;0.00;;;;;;;;;;10478527;28;20048;-65
2021/09/15 18:28:39;;;;;;;0.00;0.00;;;;;;;;;;10481895;28;20119;-68
2021/09/15 18:33:43;;;;;;;0.00;0.00;;;;;;;;;;10479094;28;20052;-68
2021/09/15 18:38:46;;;;;;;0.00;0.00;;;;;;;;;;10478874;28;20064;-68
2021/09/15 18:43:50;;;;;;;0.00;0.00;;;;;;;;;;10482603;28;20043;-70
2021/09/15 18:48:55;;;;;;;0.00;0.00;;;;;;;;;;10488103;28;20040;-68
2021/09/15 18:53:57;;;;;;;0.00;0.00;;;;;;;;;;10474716;28;20488;-67
2021/09/15 18:59:00;;;;;;;0.00;0.00;;;;;;;;;;10479927;28;20036;-70
2021/09/15 19:04:05;;;;;;;0.00;0.00;;;;;;;;;;10473430;28;20048;-70
2021/09/15 19:09:09;;;;;;;0.00;0.00;;;;;;;;;;10487541;28;20036;-70
2021/09/15 19:14:12;;;;;;;0.00;0.00;;;;;;;;;;10483887;28;20052;-70
2021/09/15 19:19:16;;;;;;;0.00;0.00;;;;;;;;;;10476078;28;20474;-71
2021/09/15 19:24:19;;;;;;;0.00;0.00;;;;;;;;;;10474611;28;20044;-68
2021/09/15 19:29:22;;;;;;;0.00;0.00;;;;;;;;;;10474461;28;20182;-71
2021/09/15 19:34:28;;;;;;;0.00;0.00;;;;;;;;;;10475986;28;20245;-70
2021/09/15 19:39:31;;;;;;;0.00;0.00;;;;;;;;;;10475040;28;20062;-69
2021/09/15 19:44:34;;;;;;;0.10;0.00;;;;;;;;;;10476250;28;20040;-68
2021/09/15 19:49:39;;;;;;;0.00;0.00;;;;;;;;;;10476150;28;20216;-69
2021/09/15 19:54:41;;;;;;;0.00;0.00;;;;;;;;;;10474431;28;20052;-67
2021/09/15 19:59:44;;;;;;;0.00;0.00;;;;;;;;;;10473396;28;20043;-67
2021/09/15 20:04:49;;;;;;;0.00;0.00;;;;;;;;;;10474287;28;20043;-66
2021/09/15 20:09:52;;;;;;;0.00;0.00;;;;;;;;;;10474532;28;20044;-66
2021/09/15 20:14:55;;;;;;;0.00;0.00;;;;;;;;;;10475447;28;20427;-67
2021/09/15 20:19:59;;;;;;;0.00;0.00;;;;;;;;;;10480611;28;20138;-68
2021/09/15 20:25:03;;;;;;;0.00;0.00;;;;;;;;;;10471863;28;20044;-68
2021/09/15 20:30:07;;;;;;;0.00;0.00;;;;;;;;;;10475100;28;20045;-68
2021/09/15 20:35:11;;;;;;;0.00;0.00;;;;;;;;;;10471052;28;20406;-67
2021/09/15 20:40:14;;;;;;;0.00;0.00;;;;;;;;;;10474030;28;20056;-67
2021/09/15 20:45:20;;;;;;;0.00;0.00;;;;;;;;;;10472355;28;20194;-68
2021/09/15 20:50:24;;;;;;;0.00;0.00;;;;;;;;;;10475028;28;20060;-68
2021/09/15 20:55:27;;;;;;;0.00;0.00;;;;;;;;;;10470071;28;20040;-68
2021/09/15 21:00:30;;;;;;;0.00;0.00;;;;;;;;;;10472032;28;20410;-67
2021/09/15 21:11:20;;;;;;;0.00;0.00;;;;;;;;;;10471970;28;20044;-68
2021/09/15 21:16:23;;;;;;;0.00;0.00;;;;;;;;;;10470520;28;20049;-68
2021/09/15 21:21:26;;;;;;;0.00;0.00;;;;;;;;;;10470545;28;20174;-68
2021/09/15 21:26:31;;;;;;;0.00;0.00;;;;;;;;;;10471812;28;21436;-68
2021/09/15 21:31:34;;;;;;;0.00;0.00;;;;;;;;;;10472960;28;20044;-68
2021/09/15 21:36:36;;;;;;;0.00;0.00;;;;;;;;;;10470558;28;20418;-68
2021/09/15 21:41:40;;;;;;;0.00;0.00;;;;;;;;;;10472166;28;20064;-68
2021/09/15 21:46:43;;;;;;;0.00;0.00;;;;;;;;;;10470455;28;20061;-68
2021/09/15 21:51:46;;;;;;;0.00;0.00;;;;;;;;;;10472644;28;20036;-68
2021/09/15 21:56:50;;;;;;;0.00;0.00;;;;;;;;;;10471799;28;20036;-68
2021/09/15 22:01:53;;;;;;;0.00;0.00;;;;;;;;;;10472438;28;20041;-68
2021/09/15 22:06:57;;;;;;;0.00;0.00;;;;;;;;;;10467501;28;20052;-68
2021/09/15 22:12:01;;;;;;;0.00;0.00;;;;;;;;;;10471742;28;20487;-68
2021/09/15 22:17:04;;;;;;;0.00;0.00;;;;;;;;;;10474059;28;20050;-67
2021/09/15 22:22:07;;;;;;;0.00;0.00;;;;;;;;;;10474086;28;20045;-67
2021/09/15 22:27:11;;;;;;;0.00;0.00;;;;;;;;;;10473948;28;20052;-67
2021/09/15 22:32:15;;;;;;;0.00;0.00;;;;;;;;;;10474311;28;20047;-67
2021/09/15 22:37:18;;;;;;;0.00;0.00;;;;;;;;;;10478674;28;20036;-67
2021/09/15 22:42:22;;;;;;;0.00;0.00;;;;;;;;;;10480707;28;20494;-67
2021/09/15 22:47:25;;;;;;;0.00;0.00;;;;;;;;;;10481450;28;20135;-68
2021/09/15 22:52:28;;;;;;;0.00;0.00;;;;;;;;;;10480907;28;20045;-67
2021/09/15 22:57:32;;;;;;;0.00;0.00;;;;;;;;;;10466879;28;20070;-68
2021/09/15 23:02:36;;;;;;;0.00;0.00;;;;;;;;;;10479651;28;20049;-68
2021/09/15 23:07:38;;;;;;;0.00;0.00;;;;;;;;;;10480509;28;20044;-68
2021/09/15 23:12:42;;;;;;;0.00;0.00;;;;;;;;;;10479795;28;20059;-68
2021/09/15 23:17:45;;;;;;;0.00;0.00;;;;;;;;;;10478769;28;20044;-67
2021/09/15 23:22:48;;;;;;;0.00;0.00;;;;;;;;;;10480515;28;20040;-68
2021/09/15 23:27:52;;;;;;;0.00;0.00;;;;;;;;;;10479855;28;20040;-68
2021/09/15 23:32:55;;;;;;;0.00;0.00;;;;;;;;;;10480279;28;20047;-68
2021/09/15 23:37:58;;;;;;;0.00;0.00;;;;;;;;;;10479611;28;20036;-68
2021/09/15 23:43:02;;;;;;;0.00;0.00;;;;;;;;;;10479265;28;20061;-68
2021/09/15 23:48:05;;;;;;;0.00;0.00;;;;;;;;;;10475725;28;20048;-68
2021/09/15 23:53:08;;;;;;;0.00;0.00;;;;;;;;;;10479268;28;20037;-68
2021/09/15 23:58:13;;;;;;;0.00;0.00;;;;;;;;;;10464602;28;20361;-68
